Terminal Aerodrome Forecast
Issued by NWS

Home | Current Version | Previous Version | Text Only | Print | Product List | Glossary On
Versions: 1 2 3 4 5 6 7 8 9 10 11 12 13 14
000
FTUS43 KGRB 161739
TAFATW
TAF
KATW 161739Z 1618/1718 28012KT P6SM SKC
     FM162300 24008KT P6SM SKC
     FM171000 20007KT P6SM BKN150 WS010/24030KT
     FM171400 21013G24KT P6SM SCT030 OVC070 PROB30 1716/1718 5SM -SN
      BKN030=

USA.gov is the U.S. government's official web portal to all federal, state and local government web resources and services.